Date,TemperatureHighF,TemperatureAvgF,TemperatureLowF,DewpointHighF,DewpointAvgF,DewpointLowF,HumidityHigh,HumidityAvg,HumidityLow,PressureMaxIn,PressureMinIn,WindSpeedMaxMPH,WindSpeedAvgMPH,GustSpeedMaxMPH,PrecipitationSumIn
2013-1-1,45.0,41.1,36.0,43.0,35.6,19.0,99,83,46,30.00,29.88,10,4,20,0.35
2013-1-2,41.0,36.9,34.0,41.0,35.2,32.0,99,94,83,30.03,29.84,7,2,15,0.09
2013-1-3,37.0,32.2,25.0,37.0,30.7,20.0,99,94,77,30.13,29.98,6,1,10,0.00
2013-1-4,43.0,29.2,23.0,21.0,17.3,14.0,82,63,35,30.19,30.10,10,3,16,0.00
2013-1-5,48.0,36.4,22.0,26.0,13.5,-6.0,77,44,12,30.24,30.10,9,2,16,0.00
2013-1-6,51.0,38.2,31.0,39.0,32.2,25.0,94,80,51,30.10,29.96,10,5,24,0.00
2013-1-7,48.0,34.9,25.0,27.0,23.9,18.0,87,66,41,30.28,30.05,14,3,21,0.00
2013-1-8,52.0,39.2,30.0,44.0,33.3,20.0,95,79,59,30.32,30.23,11,4,17,0.00
2013-1-9,54.0,48.9,44.0,52.0,48.5,43.0,100,98,88,30.44,30.30,11,4,19,0.00
2013-1-10,58.0,51.9,43.0,53.0,48.9,40.0,98,90,80,30.48,30.31,6,1,15,0.00
2013-1-11,55.0,47.7,39.0,55.0,47.5,38.0,100,99,91,30.31,30.11,10,6,20,0.17
2013-1-12,65.0,57.5,54.0,61.0,56.3,52.0,100,96,79,30.18,30.11,12,6,21,0.01
2013-1-13,61.0,56.0,54.0,55.0,53.2,52.0,97,90,79,30.12,30.05,15,9,29,0.00
2013-1-14,56.0,54.3,45.0,56.0,54.2,45.0,100,100,98,30.12,30.05,16,8,25,0.47
2013-1-15,53.0,45.3,38.0,53.0,45.3,38.0,100,100,100,30.11,29.98,7,4,14,0.98
2013-1-16,53.0,49.9,48.0,53.0,49.9,48.0,100,100,100,29.99,29.91,10,4,22,0.37
2013-1-17,49.0,41.0,28.0,49.0,40.9,26.0,100,99,93,30.04,29.70,8,2,17,1.97
2013-1-18,43.0,31.7,23.0,33.0,24.0,16.0,92,74,59,30.36,30.04,8,4,17,0.22
2013-1-19,52.0,36.5,26.0,28.0,22.7,14.0,81,60,31,30.34,30.05,8,4,15,0.00
2013-1-20,55.0,41.7,33.0,34.0,25.0,12.0,73,53,33,30.05,29.98,10,5,18,0.00
2013-1-21,52.0,37.4,23.0,28.0,20.1,10.0,70,50,35,30.01,29.81,11,5,33,0.00
2013-1-22,32.0,20.7,13.0,11.0,2.4,-6.0,68,47,22,30.01,29.76,15,8,33,0.00
2013-1-23,41.0,28.4,18.0,23.0,15.7,4.0,74,59,44,30.12,29.90,12,5,38,0.00
2013-1-24,39.0,29.5,15.0,29.0,14.0,2.0,81,54,30,30.22,29.78,20,7,36,0.00
2013-1-25,36.0,21.4,13.0,36.0,16.5,1.0,99,82,58,30.23,29.88,14,6,23,0.00
2013-1-26,49.0,34.7,28.0,33.0,18.9,4.0,99,57,24,30.20,29.93,12,4,33,0.00
2013-1-27,39.0,29.2,23.0,28.0,23.2,6.0,96,80,30,30.34,30.20,5,1,11,0.01
2013-1-28,60.0,42.4,29.0,47.0,37.8,27.0,97,85,61,30.30,30.19,10,5,18,0.02
2013-1-29,67.0,54.3,46.0,54.0,46.6,37.0,99,76,54,30.20,30.02,12,7,21,0.01
2013-1-30,57.0,52.0,39.0,57.0,52.0,39.0,100,100,98,30.02,29.41,18,12,43,1.61
2013-1-31,38.0,31.3,23.0,38.0,24.3,18.0,99,76,60,29.86,29.44,13,6,24,0.79
2013-2-1,33.0,22.0,14.0,27.0,11.2,-1.0,92,64,40,30.12,29.74,15,8,32,0.01
2013-2-2,36.0,25.8,17.0,29.0,12.3,-9.0,98,60,24,30.12,29.86,10,5,17,0.00
2013-2-3,40.0,28.3,23.0,35.0,24.6,16.0,100,87,58,29.86,29.71,15,8,33,0.00
2013-2-4,46.0,32.6,20.0,25.0,19.5,14.0,83,59,39,29.97,29.82,9,5,17,0.00
2013-2-5,55.0,41.4,31.0,38.0,28.9,21.0,72,61,48,29.92,29.79,9,5,16,0.00
2013-2-6,58.0,44.5,34.0,34.0,23.9,16.0,82,48,23,30.16,29.90,9,3,25,0.00
2013-2-7,42.0,34.7,32.0,35.0,26.8,16.0,99,76,36,30.15,29.90,9,4,16,0.46
2013-2-8,45.0,36.5,30.0,45.0,34.1,22.0,100,91,68,29.96,29.81,12,4,22,0.31
2013-2-9,53.0,37.7,23.0,28.0,20.0,14.0,88,51,28,30.23,29.95,7,3,16,0.01
2013-2-10,43.0,37.7,33.0,41.0,23.6,16.0,99,59,41,30.28,30.06,11,4,17,0.22
2013-2-11,50.0,45.8,41.0,50.0,41.6,17.0,100,87,40,30.08,29.93,14,7,22,0.25
2013-2-12,52.0,40.2,33.0,32.0,21.8,14.0,94,49,25,30.01,29.83,9,2,26,0.08
2013-2-13,41.0,33.8,29.0,41.0,32.8,26.0,99,96,90,29.84,29.55,11,3,24,0.36
2013-2-14,51.0,34.7,23.0,34.0,26.0,21.0,92,73,37,29.94,29.73,7,3,17,0.00
2013-2-15,53.0,38.4,29.0,33.0,28.7,26.0,89,70,36,29.98,29.85,8,3,17,0.00
2013-2-16,35.0,25.7,16.0,27.0,18.1,9.0,91,73,58,29.86,29.63,13,4,29,0.00
2013-2-17,31.0,20.2,12.0,13.0,8.3,4.0,77,61,40,30.04,29.74,16,9,32,0.00
2013-2-18,46.0,33.8,21.0,24.0,17.8,8.0,62,52,37,30.19,30.04,12,4,22,0.00
2013-2-19,51.0,36.0,27.0,44.0,25.5,13.0,99,68,42,30.04,29.76,15,9,28,0.00
2013-2-20,45.0,31.1,22.0,14.0,0.3,-16.0,62,30,11,29.98,29.79,15,7,31,0.00
2013-2-21,57.0,40.4,25.0,30.0,6.2,-24.0,88,28,6,30.10,29.94,5,2,11,0.29
2013-2-22,33.0,29.8,28.0,31.0,28.7,27.0,98,96,91,30.13,30.04,0,0,0,0.69
2013-2-25,30.0,27.6,26.0,25.0,24.3,23.0,94,87,80,29.92,29.87,8,5,24,0.00
2013-2-26,35.0,29.2,24.0,35.0,28.7,23.0,99,98,94,29.88,29.46,11,3,20,0.87
2013-2-27,51.0,37.0,29.0,39.0,31.6,27.0,99,82,48,29.66,29.49,11,4,24,0.25
2013-2-28,33.0,28.1,24.0,29.0,24.4,21.0,94,86,77,29.74,29.57,9,5,27,0.01
2013-3-1,34.0,27.3,24.0,28.0,24.2,22.0,94,88,76,29.78,29.70,8,3,16,0.00
2013-3-2,39.0,27.7,20.0,29.0,23.8,16.0,96,85,64,29.75,29.69,6,2,17,0.00
2013-3-3,34.0,21.9,15.0,20.0,14.7,11.0,89,74,50,29.78,29.70,11,5,21,0.00
2013-3-4,53.0,32.6,17.0,24.0,12.5,3.0,80,49,13,29.96,29.74,11,4,19,0.00
2013-3-5,42.0,38.9,28.0,42.0,33.2,23.0,99,81,54,29.96,29.52,13,5,25,0.64
2013-3-6,30.0,23.3,19.0,27.0,21.2,16.0,96,91,83,29.96,29.46,22,10,39,0.58
2013-3-7,26.0,22.9,21.0,22.0,20.6,19.0,96,91,83,30.03,29.92,14,6,22,0.00
2013-3-8,54.0,40.3,22.0,26.0,20.5,9.0,83,47,26,30.19,30.12,6,2,16,0.00
2013-3-9,57.0,44.9,36.0,27.0,19.3,7.0,46,36,25,30.23,30.16,6,2,10,0.00
2013-3-10,57.0,47.3,42.0,33.0,29.3,25.0,59,50,38,30.22,30.13,7,4,14,0.00
2013-3-11,48.0,44.3,42.0,47.0,42.5,32.0,100,94,61,30.14,29.80,16,8,24,0.48
2013-3-12,55.0,44.2,34.0,48.0,37.8,23.0,100,81,42,29.91,29.71,9,4,20,0.74
2013-3-13,46.0,33.0,22.0,29.0,22.6,13.0,81,66,42,29.97,29.90,13,7,35,0.01
2013-3-14,47.0,31.0,18.0,18.0,13.0,9.0,78,50,27,30.12,29.94,9,4,30,0.00
2013-3-15,65.0,45.5,29.0,39.0,29.3,12.0,85,56,26,30.05,29.91,13,6,26,0.00
2013-3-16,74.0,58.1,48.0,45.0,41.5,39.0,72,56,33,29.91,29.78,12,8,24,0.00
2013-3-17,66.0,53.9,38.0,48.0,43.4,37.0,97,70,44,29.99,29.88,7,4,15,0.00
2013-3-18,42.0,35.2,30.0,42.0,34.8,29.0,99,98,97,29.98,29.78,9,4,17,0.35
2013-3-19,53.0,41.8,32.0,42.0,29.2,9.0,100,66,33,29.97,29.77,10,6,22,0.31
2013-3-20,51.0,36.7,28.0,26.0,11.1,2.0,90,36,21,29.96,29.71,13,4,20,0.02
2013-3-21,33.0,23.6,15.0,24.0,11.6,4.0,90,61,41,29.76,29.56,14,7,27,0.02
2013-3-22,50.0,31.0,18.0,26.0,12.9,4.0,70,50,17,29.90,29.76,5,2,13,0.00
2013-3-23,55.0,40.6,34.0,43.0,33.9,25.0,95,77,58,29.91,29.80,6,1,11,0.04
2013-3-24,38.0,34.6,31.0,37.0,34.0,31.0,99,98,87,29.82,29.44,7,2,25,0.59
2013-3-25,34.0,27.6,22.0,32.0,25.0,19.0,99,89,73,29.68,29.40,14,3,30,0.08
2013-3-26,36.0,25.4,21.0,30.0,21.5,18.0,91,85,70,30.00,29.67,12,4,26,0.01
2013-3-27,43.0,29.6,21.0,28.0,21.8,17.0,91,74,47,30.10,29.98,8,3,18,0.00
2013-3-28,50.0,34.7,25.0,25.0,20.7,18.0,83,59,34,30.18,30.04,9,3,17,0.00
2013-3-29,53.0,38.6,32.0,36.0,24.3,13.0,98,60,25,30.22,30.13,6,2,14,0.00
2013-3-30,53.0,43.6,36.0,42.0,38.0,35.0,97,82,59,30.14,30.01,6,2,14,0.19
2013-3-31,61.0,48.3,42.0,54.0,44.4,-99.9,99,90,62,30.01,29.80,10,5,18,0.12
2013-4-1,62.0,48.5,41.0,48.0,37.7,30.0,99,68,42,29.92,29.80,10,4,23,0.01
2013-4-2,57.0,41.7,31.0,30.0,21.8,14.0,77,49,23,30.06,29.88,11,4,24,0.00
2013-4-3,56.0,42.4,32.0,23.0,19.3,15.0,53,40,21,30.19,30.03,9,1,15,0.00
2013-4-4,40.0,31.8,27.0,31.0,25.0,15.0,98,79,43,30.19,29.84,6,2,21,0.58
2013-4-5,58.0,42.2,31.0,46.0,35.7,31.0,99,80,43,30.02,29.80,8,1,13,0.12
2013-4-6,56.0,47.6,42.0,33.0,30.4,27.0,64,52,40,30.17,30.01,8,3,13,0.00
2013-4-7,62.0,51.2,42.0,43.0,36.9,30.0,68,58,47,30.17,30.09,11,7,20,0.00
2013-4-8,69.0,57.6,50.0,50.0,45.7,41.0,78,65,47,30.15,30.09,11,6,19,0.00
2013-4-9,75.0,63.2,55.0,54.0,50.8,48.0,81,65,46,30.24,30.12,13,5,22,0.00
2013-4-10,80.0,65.8,57.0,55.0,52.0,45.0,80,63,31,30.18,30.03,12,6,24,0.00
2013-4-11,70.0,61.3,55.0,60.0,53.2,49.0,99,76,48,30.04,29.75,17,8,26,0.40
2013-4-12,71.0,57.5,45.0,60.0,49.2,34.0,99,77,36,29.85,29.66,18,7,32,1.31
2013-4-13,69.0,53.1,42.0,38.0,32.9,27.0,74,50,24,30.05,29.80,10,4,30,0.02
2013-4-14,62.0,54.9,46.0,46.0,35.3,27.0,92,49,36,30.10,29.98,11,4,21,0.00
2013-4-15,53.0,49.2,46.0,53.0,48.9,44.0,99,98,86,30.20,29.96,6,1,13,0.24
2013-4-16,69.0,58.4,50.0,59.0,54.2,50.0,100,87,64,30.31,30.20,7,3,12,0.01
2013-4-17,65.0,59.2,56.0,61.0,55.6,52.0,97,88,72,30.30,30.18,7,2,13,0.67
2013-4-18,66.0,59.2,55.0,58.0,55.0,53.0,98,86,67,30.18,30.01,10,6,19,0.02
2013-4-19,60.0,54.3,36.0,58.0,53.2,32.0,99,96,80,30.01,29.74,20,10,39,0.28
2013-4-20,58.0,42.5,31.0,34.0,27.8,21.0,89,58,32,30.21,29.83,9,3,27,0.01
2013-4-21,56.0,45.4,38.0,35.0,29.4,23.0,76,54,40,30.36,30.21,6,1,17,0.00
2013-4-22,58.0,44.2,35.0,38.0,34.1,29.0,95,70,44,30.33,30.18,4,1,13,0.00
2013-4-23,65.0,52.0,37.0,43.0,37.2,26.0,80,58,40,30.22,30.09,7,2,13,0.00
2013-4-24,63.0,54.0,47.0,54.0,47.5,43.0,98,80,60,30.13,30.03,13,6,27,0.01
2013-4-25,67.0,49.4,34.0,48.0,29.6,11.0,97,58,13,30.27,30.05,6,2,13,0.01
2013-4-26,60.0,50.6,40.0,34.0,28.7,19.0,59,43,34,30.38,30.26,8,2,14,0.00
2013-4-27,52.0,48.0,44.0,47.0,41.8,34.0,99,81,55,30.35,30.21,8,1,13,0.55
2013-4-28,47.0,44.5,41.0,47.0,43.2,-99.9,100,98,95,30.21,29.97,7,2,13,1.65
2013-4-29,63.0,53.4,47.0,58.0,51.1,47.0,100,93,59,30.04,29.96,6,2,14,0.55
2013-4-30,67.0,56.8,52.0,58.0,53.4,51.0,100,89,64,30.18,30.00,4,1,12,0.01
2013-5-1,57.0,50.8,47.0,53.0,49.6,47.0,99,96,82,30.27,30.16,7,1,19,0.01
2013-5-2,53.0,48.6,46.0,53.0,48.6,46.0,100,100,99,30.28,30.21,5,1,21,0.48
2013-5-3,48.0,46.8,44.0,48.0,46.8,44.0,100,100,100,30.22,30.06,7,2,21,0.63
2013-5-4,46.0,41.3,37.0,46.0,41.2,37.0,100,100,98,30.07,29.93,8,3,23,0.59
2013-5-5,47.0,40.8,38.0,46.0,40.8,38.0,100,100,100,29.98,29.78,8,3,27,5.68
2013-5-6,58.0,49.0,43.0,53.0,46.0,40.0,100,90,63,29.87,29.76,10,4,20,2.23
2013-5-7,58.0,47.2,42.0,47.0,43.4,39.0,96,87,59,29.92,29.82,6,1,12,0.70
2013-5-8,64.0,52.2,46.0,55.0,49.5,45.0,99,91,71,30.04,29.88,7,2,13,0.05
2013-5-9,74.0,60.3,50.0,55.0,51.0,47.0,97,74,44,30.15,30.01,5,1,14,0.01
2013-5-10,72.0,61.4,58.0,56.0,50.6,-99.9,84,71,52,30.16,30.01,10,4,21,0.00
2013-5-11,69.0,59.0,53.0,58.0,54.1,50.0,98,84,64,30.03,29.88,7,3,16,0.21
2013-5-12,61.0,50.0,42.0,49.0,37.2,-99.9,92,66,34,30.02,29.87,10,4,18,0.21
2013-5-13,61.0,46.9,37.0,32.0,28.5,26.0,71,51,29,30.15,30.01,7,3,19,0.00
2013-5-14,68.0,54.0,41.0,49.0,36.5,27.0,79,53,33,30.22,30.09,8,2,16,0.00
2013-5-15,83.0,67.4,54.0,55.0,50.1,47.0,83,56,32,30.16,30.05,11,4,24,0.00
2013-5-16,77.0,60.1,58.0,55.0,30.9,-99.9,79,60,39,30.13,30.04,5,1,18,0.00
2013-5-17,73.0,63.6,59.0,58.0,48.1,-99.9,80,70,56,30.18,30.08,7,2,13,0.00
2013-5-18,61.0,58.3,56.0,58.0,56.9,54.0,100,95,77,30.17,30.10,6,2,14,1.04
2013-5-19,65.0,60.3,57.0,65.0,59.8,57.0,100,98,89,30.16,30.09,7,1,11,0.25
2013-5-20,73.0,63.8,57.0,67.0,61.2,56.0,100,92,72,30.20,30.11,5,0,8,0.01
2013-5-21,79.0,67.3,60.0,67.0,62.0,59.0,99,84,56,30.16,30.06,5,1,12,0.04
2013-5-22,72.0,62.3,56.0,67.0,60.5,55.0,99,94,78,30.11,29.98,5,1,13,0.71
2013-5-23,76.0,62.5,55.0,64.0,57.1,49.0,100,84,52,30.03,29.92,9,1,24,0.43
2013-5-24,64.0,54.7,47.0,49.0,43.1,32.0,94,67,43,30.22,29.90,9,2,25,0.01
2013-5-25,73.0,54.1,39.0,46.0,37.5,27.0,79,55,28,30.29,30.19,6,1,13,0.00
2013-5-26,72.0,58.6,48.0,52.0,44.1,32.0,87,60,41,30.28,30.19,2,0,9,0.00
2013-5-27,71.0,61.4,55.0,59.0,51.8,46.0,81,71,59,30.30,30.23,3,0,10,0.00
2013-5-29,75.0,68.2,62.0,64.0,60.2,56.0,85,76,66,30.32,30.26,2,0,11,0.00
2013-5-30,73.0,64.1,57.0,64.0,58.8,56.0,98,84,67,30.35,30.27,3,0,10,0.00
2013-5-31,73.0,64.8,59.0,62.0,58.8,57.0,97,81,63,30.32,30.22,3,0,10,0.00
2013-6-1,73.0,65.4,60.0,64.0,60.0,58.0,96,83,64,30.23,30.13,4,1,12,0.00
2013-6-2,66.0,61.2,59.0,66.0,59.8,-99.9,100,99,87,30.16,29.98,6,1,14,1.66
2013-6-3,75.0,65.0,59.0,67.0,59.8,55.0,100,85,62,30.07,29.94,2,0,10,0.07
2013-6-4,72.0,63.9,57.0,64.0,59.9,56.0,99,87,73,30.17,30.04,2,0,9,0.01
2013-6-5,70.0,62.1,58.0,65.0,60.7,57.0,99,95,83,30.18,30.07,4,0,13,0.37
2013-6-6,67.0,62.2,59.0,67.0,62.1,59.0,100,99,95,30.09,29.88,3,0,9,0.43
2013-6-7,74.0,63.5,58.0,70.0,62.0,57.0,100,95,77,29.92,29.77,1,0,9,0.70
2013-6-8,74.0,63.7,56.0,66.0,61.0,56.0,99,91,70,30.19,29.92,1,0,8,0.42
2013-6-9,71.0,63.0,60.0,67.0,61.8,58.0,100,96,84,30.25,30.15,3,0,12,0.92
2013-6-10,67.0,62.2,56.0,65.0,61.1,55.0,100,96,80,30.15,30.01,5,1,18,1.05
2013-6-11,77.0,65.9,58.0,65.0,60.1,57.0,100,83,58,30.13,30.02,5,1,16,0.11
2013-6-12,83.0,70.9,62.0,73.0,64.6,59.0,91,81,62,30.16,30.06,3,0,13,0.01
2013-6-13,80.0,68.0,62.0,68.0,61.9,58.0,92,82,61,30.06,29.80,5,1,21,0.04
2013-6-14,74.0,63.0,53.0,61.0,54.1,49.0,98,74,52,30.13,29.90,7,1,15,0.02
2013-6-15,78.0,64.7,57.0,64.0,54.7,46.0,86,71,48,30.22,30.13,1,0,7,0.00
2013-6-16,76.0,65.4,58.0,67.0,60.4,55.0,93,84,63,30.23,30.14,1,0,5,0.00
2013-6-17,76.0,66.3,61.0,70.0,64.1,61.0,99,93,72,30.16,30.07,1,0,7,0.07
2013-6-18,70.0,63.9,60.0,70.0,63.0,58.0,100,97,84,30.08,29.91,3,0,13,0.08
2013-6-19,74.0,65.0,58.0,66.0,59.6,54.0,95,83,68,30.22,30.01,1,0,7,0.01
2013-6-20,71.0,63.1,60.0,65.0,60.7,58.0,99,92,79,30.32,30.21,2,0,11,0.01
2013-6-22,77.0,70.3,64.0,64.0,59.5,53.0,83,69,49,30.33,30.24,1,0,6,0.00
2013-6-23,76.0,65.3,61.0,68.0,62.1,59.0,98,90,71,30.33,30.24,2,0,11,0.40
2013-6-24,74.0,64.4,60.0,70.0,63.1,59.0,99,95,77,30.33,30.23,1,0,7,0.21
2013-6-25,78.0,67.4,62.0,69.0,64.7,62.0,99,91,69,30.27,30.16,0,0,5,0.01
2013-6-26,80.0,69.1,62.0,72.0,65.6,62.0,99,89,73,30.17,30.06,1,0,9,0.01
2013-6-27,80.0,67.4,59.0,72.0,64.9,58.0,99,92,72,30.09,29.91,4,0,11,0.11
2013-6-28,81.0,68.4,62.0,69.0,63.8,59.0,97,86,57,29.95,29.76,4,1,17,0.12
2013-6-29,79.0,69.1,60.0,67.0,60.7,55.0,95,76,59,29.84,29.75,2,0,7,0.10
2013-6-30,78.0,66.0,60.0,69.0,60.4,55.0,99,83,57,29.93,29.81,3,0,9,0.91
2013-7-1,72.0,62.5,59.0,67.0,61.9,59.0,100,98,85,30.05,29.91,3,0,13,1.58
2013-7-2,72.0,63.7,60.0,68.0,63.3,60.0,100,98,87,30.22,30.05,2,0,11,0.63
2013-7-3,67.0,62.3,58.0,67.0,62.3,58.0,100,100,100,30.29,30.21,3,0,15,2.10
2013-7-4,66.0,62.6,58.0,66.0,62.6,58.0,100,100,99,30.32,30.25,4,0,14,2.54
2013-7-5,70.0,63.4,62.0,69.0,63.2,61.0,100,99,87,30.35,30.27,7,0,20,0.94
2013-7-6,71.0,64.7,62.0,69.0,64.3,62.0,100,99,89,30.32,30.24,4,0,14,0.94
2013-7-7,73.0,66.3,63.0,70.0,65.7,63.0,100,98,87,30.28,30.20,1,0,8,0.20
2013-7-8,82.0,65.4,63.0,71.0,62.8,-99.9,100,95,56,30.32,30.25,1,0,5,0.06
2013-7-9,76.0,68.0,64.0,71.0,66.2,62.0,100,94,82,30.30,30.21,2,0,6,0.25
2013-7-10,79.0,65.8,63.0,72.0,59.5,-99.9,99,88,73,30.26,30.12,0,0,8,0.45
2013-7-13,66.0,63.4,61.0,66.0,63.4,61.0,100,100,100,30.21,30.18,2,0,13,0.07
2013-7-14,67.0,64.6,63.0,67.0,64.6,63.0,100,100,100,30.38,30.19,9,2,23,2.77
2013-7-15,75.0,66.3,64.0,72.0,65.1,64.0,100,96,78,30.45,30.38,4,0,13,0.15
2013-7-16,83.0,71.0,64.0,70.0,64.5,61.0,99,81,53,30.45,30.40,0,0,5,0.01
2013-7-17,83.0,72.5,66.0,73.0,65.2,62.0,95,78,63,30.42,30.32,0,0,5,0.26
2013-7-18,79.0,70.6,66.0,72.0,66.0,61.0,95,85,76,30.35,30.24,1,0,7,0.02
2013-7-19,77.0,68.9,65.0,73.0,67.2,65.0,99,94,81,30.27,30.15,0,0,6,0.00
2013-7-20,80.0,70.2,66.0,72.0,67.8,66.0,100,93,71,30.18,30.12,1,0,5,0.00
2013-9-5,79.0,71.2,65.0,67.0,60.3,45.0,82,69,48,30.25,30.21,0,0,4,0.04
2013-9-6,72.0,65.1,60.0,62.0,54.6,43.0,90,70,44,30.30,30.19,1,0,9,0.04
2013-9-7,76.0,64.1,57.0,66.0,58.9,56.0,97,84,66,30.23,30.12,1,0,7,0.00
2013-9-8,76.0,66.0,63.0,68.0,59.5,-99.9,93,82,67,30.14,30.07,2,0,6,0.00
2013-9-9,76.0,68.3,64.0,67.0,62.9,60.0,91,83,70,30.28,30.13,1,0,8,0.00
2013-9-10,78.0,67.9,63.0,67.0,62.9,59.0,93,84,68,30.37,30.27,2,0,8,0.00
2013-9-11,76.0,67.7,63.0,70.0,63.9,57.0,95,88,71,30.35,30.24,0,0,3,0.00
2013-9-12,80.0,68.9,60.0,70.0,63.9,58.0,96,85,67,30.24,29.98,6,0,12,0.10
2013-9-13,73.0,62.6,54.0,62.0,55.2,45.0,94,78,57,29.99,29.91,3,0,12,0.05
2013-9-14,67.0,56.7,50.0,56.0,49.2,44.0,86,76,60,30.17,29.97,1,0,7,0.00
2013-9-15,67.0,56.7,53.0,61.0,52.0,-99.9,94,88,76,30.26,30.17,2,0,7,0.00
2013-9-16,77.0,64.5,57.0,62.0,57.7,53.0,96,80,51,30.26,30.19,1,0,9,0.01
2013-9-17,62.0,56.3,52.0,56.0,52.7,50.0,96,88,75,30.35,30.25,1,0,8,0.01
2013-9-18,56.0,51.4,49.0,51.0,49.9,48.0,97,94,92,30.30,30.24,1,0,8,0.00
2013-9-19,71.0,61.4,55.0,64.0,59.0,54.0,99,93,73,30.25,30.17,0,0,5,0.00
2013-9-20,75.0,65.0,59.0,68.0,61.6,58.0,99,90,69,30.18,30.03,1,0,7,0.01
2013-9-21,63.0,59.7,55.0,61.0,58.6,54.0,99,96,88,30.04,29.79,3,0,12,1.07
2013-9-22,58.0,52.7,52.0,54.0,48.2,-99.9,99,92,85,29.97,29.80,1,0,7,1.07
2013-9-23,66.0,57.0,51.0,59.0,53.4,48.0,97,88,74,30.12,29.97,1,0,6,0.01
2013-9-24,66.0,57.8,53.0,60.0,54.6,50.0,97,89,76,30.12,30.08,0,0,1,0.00
2013-9-25,55.0,54.4,53.0,55.0,54.4,53.0,99,99,99,29.95,29.92,1,0,8,0.93
2013-9-26,63.0,55.3,51.0,59.0,53.1,48.0,99,92,74,30.09,29.92,0,0,4,0.04
2013-9-27,67.0,57.4,49.0,58.0,52.5,48.0,95,84,68,30.23,30.09,1,0,5,0.00
2013-9-28,60.0,55.1,51.0,56.0,52.6,50.0,98,92,79,30.28,30.20,1,0,7,0.00
2013-9-29,63.0,53.4,48.0,57.0,49.3,-99.9,98,89,73,30.21,30.09,1,0,9,0.00
2013-9-30,63.0,55.8,51.0,57.0,53.5,50.0,99,92,77,30.13,30.06,0,0,3,0.00
2013-10-1,62.0,60.1,56.0,57.0,55.6,54.0,93,86,82,30.20,30.12,0,0,0,0.00
2013-10-2,74.0,61.3,56.0,62.0,55.8,52.0,91,83,63,30.24,30.17,0,0,3,0.00
2013-10-3,74.0,63.1,59.0,64.0,57.8,54.0,90,83,67,30.22,30.17,1,0,7,0.00
2013-10-4,76.0,64.5,59.0,64.0,59.5,56.0,94,84,66,30.27,30.19,0,0,5,0.00
2013-10-5,78.0,67.2,62.0,66.0,60.0,56.0,92,79,60,30.25,30.17,1,0,7,0.00
2013-10-6,72.0,64.0,61.0,63.0,59.6,57.0,94,86,71,30.17,29.99,2,0,10,0.00
2013-10-7,64.0,57.6,49.0,62.0,55.4,45.0,99,93,72,30.05,29.88,3,0,10,1.30
2013-10-8,61.0,52.1,47.0,50.0,44.4,39.0,91,76,58,30.22,30.03,3,0,11,0.01
2013-10-9,63.0,51.7,44.0,49.0,41.7,36.0,91,70,52,30.23,30.15,3,0,9,0.00
2013-10-10,71.0,56.9,48.0,54.0,47.2,39.0,85,71,50,30.15,30.06,3,0,7,0.00
2013-10-11,73.0,59.4,52.0,56.0,50.7,48.0,89,74,46,30.07,30.01,1,0,6,0.00
2013-10-12,67.0,58.8,53.0,58.0,52.9,48.0,94,81,67,30.15,30.02,1,0,7,0.00
2013-10-13,65.0,57.9,55.0,60.0,54.5,-99.9,98,92,81,30.26,30.14,1,0,6,0.24
2013-10-14,57.0,55.2,53.0,57.0,55.1,53.0,99,99,98,30.28,30.20,1,0,8,0.26
2013-10-15,56.0,52.6,50.0,55.0,52.1,50.0,99,98,91,30.22,30.10,1,0,6,0.03
2013-10-16,63.0,54.9,50.0,57.0,51.7,47.0,98,89,75,30.12,30.01,1,0,6,0.01
2013-10-17,60.0,56.2,52.0,60.0,55.8,52.0,100,98,92,30.02,29.89,1,0,7,0.09
2013-10-18,66.0,52.1,43.0,58.0,49.7,43.0,99,92,64,30.03,29.91,3,0,7,0.02
2013-10-19,57.0,51.1,46.0,52.0,48.1,42.0,99,90,74,29.98,29.86,3,0,11,0.01
2013-10-20,62.0,44.9,35.0,45.0,36.2,-99.9,94,76,34,30.07,29.91,3,0,11,0.01
2013-10-21,63.0,49.8,44.0,53.0,45.5,39.0,98,86,62,30.10,30.00,3,0,9,0.00
2013-10-22,67.0,52.2,47.0,51.0,46.2,43.0,98,81,49,30.01,29.81,0,0,5,0.01
2013-10-23,51.0,41.8,31.0,44.0,34.8,25.0,93,77,54,29.92,29.70,8,3,21,0.02
2013-10-24,51.0,37.3,30.0,37.0,30.5,25.0,89,77,53,30.07,29.91,5,1,19,0.02
2013-10-25,46.0,36.5,26.0,32.0,24.5,21.0,85,63,41,30.23,30.07,3,0,10,0.00
2013-10-26,55.0,37.3,28.0,39.0,27.3,21.0,81,69,33,30.21,29.99,5,1,15,0.00
2013-10-27,64.0,49.9,42.0,47.0,40.6,-99.9,89,73,50,30.11,29.97,6,1,24,0.00
2013-10-28,57.0,50.3,47.0,54.0,46.2,-99.9,97,90,77,30.26,30.10,1,0,10,0.05
2013-10-29,64.0,54.4,48.0,51.0,48.0,45.0,92,80,56,30.34,30.23,2,0,6,0.01
2013-10-30,70.0,57.2,51.0,54.0,51.4,48.0,96,82,56,30.30,30.22,1,0,6,0.00
2013-10-31,57.0,55.6,54.0,56.0,52.0,49.0,98,88,80,30.22,29.90,6,1,17,0.00
2013-11-1,73.0,58.4,51.0,57.0,52.1,33.0,99,83,24,29.85,29.70,11,3,27,0.09
2013-11-2,58.0,46.1,39.0,44.0,38.0,33.0,90,74,53,29.91,29.74,9,3,18,0.04
2013-11-3,57.0,41.9,34.0,34.0,29.6,-99.9,92,66,37,30.28,29.91,4,1,12,0.02
2013-11-4,52.0,40.6,34.0,31.0,28.4,26.0,78,63,40,30.40,30.27,5,1,13,0.00
2013-11-5,52.0,39.2,30.0,46.0,30.1,25.0,97,72,35,30.42,30.36,6,2,11,0.00
2013-11-6,63.0,50.9,46.0,51.0,47.4,45.0,99,89,61,30.37,30.13,5,2,12,0.00
2013-11-7,53.0,51.0,50.0,53.0,50.1,48.0,99,97,94,30.13,30.00,4,1,12,0.01
2013-11-8,41.0,39.1,37.0,19.0,17.8,17.0,45,42,39,30.20,30.17,5,1,7,0.00
2013-11-9,51.0,40.1,34.0,30.0,21.8,-99.9,67,50,36,30.25,30.14,5,2,9,0.00
2013-11-10,64.0,49.2,42.0,34.0,27.0,10.0,63,44,23,30.20,30.11,9,3,23,0.00
2013-11-11,59.0,47.6,38.0,29.0,23.8,16.0,57,40,28,30.27,30.10,11,2,16,0.00
2013-11-12,55.0,37.8,18.0,36.0,21.8,9.0,73,54,30,30.26,30.00,8,3,16,0.00
2013-11-13,44.0,26.3,15.0,16.0,12.1,8.0,82,57,32,30.36,30.24,7,2,12,0.00
2013-11-14,56.0,39.8,31.0,17.0,12.0,5.0,41,33,15,30.31,30.21,7,4,12,0.00
2013-11-15,48.0,45.1,39.0,46.0,41.9,7.0,99,91,25,30.24,30.13,10,4,15,0.01
2013-11-16,52.0,47.0,46.0,52.0,45.7,-99.9,100,98,98,30.23,30.14,8,2,12,0.01
2013-11-17,55.0,51.7,49.0,55.0,51.7,49.0,100,100,99,30.19,29.90,9,6,18,0.23
2013-11-18,62.0,50.0,38.0,56.0,39.5,26.0,100,70,36,29.96,29.85,11,5,26,0.06
2013-11-19,52.0,39.6,32.0,28.0,21.3,15.0,69,49,32,30.14,29.91,8,2,18,0.00
2013-11-20,44.0,34.3,27.0,28.0,24.5,22.0,86,68,47,30.31,30.14,5,2,17,0.00
2013-11-21,48.0,40.5,31.0,48.0,38.8,26.0,99,94,78,30.39,30.30,10,4,14,0.02
2013-11-22,57.0,51.8,47.0,57.0,51.6,47.0,100,99,96,30.34,30.12,10,4,18,0.02
2013-11-23,51.0,41.4,25.0,50.0,35.2,-99.9,98,82,60,30.12,30.00,10,3,22,0.00
2013-11-24,29.0,21.4,16.0,18.0,10.7,7.0,74,64,41,30.24,30.05,8,3,22,0.00
2013-11-25,37.0,27.8,21.0,25.0,10.3,2.0,95,50,26,30.30,30.11,5,1,10,0.00
2013-11-26,46.0,37.2,25.0,46.0,37.0,23.0,100,98,92,30.13,29.56,8,4,16,2.44
2013-11-27,40.0,25.4,15.0,40.0,23.1,11.0,99,91,80,29.96,29.48,9,1,19,0.19
2013-11-29,51.0,38.8,29.0,25.0,21.7,20.0,71,51,34,30.44,30.29,4,1,9,0.00
2013-11-30,43.0,30.1,22.0,23.0,18.6,-99.9,88,66,43,30.44,30.23,9,2,15,0.00
2013-12-1,56.0,43.5,34.0,35.0,30.6,21.0,77,61,41,30.19,29.94,7,2,12,0.00
2013-12-2,54.0,42.6,37.0,39.0,33.8,29.0,91,72,56,29.93,29.76,5,0,8,0.00
2013-12-3,52.0,44.4,41.0,46.0,42.7,39.0,99,95,77,29.91,29.78,5,2,11,0.00
2013-12-4,53.0,49.4,46.0,52.0,49.2,46.0,99,99,97,30.05,29.91,10,2,18,0.00
2013-12-5,59.0,54.9,52.0,57.0,54.3,52.0,100,98,93,30.11,30.03,9,5,18,0.00
2013-12-13,47.0,35.6,23.0,18.0,11.7,5.0,52,37,26,30.20,30.11,7,3,10,0.00
2013-12-14,42.0,35.7,30.0,42.0,30.1,-99.9,99,85,46,30.13,29.69,7,3,14,0.80
2013-12-15,40.0,31.7,25.0,40.0,29.6,22.0,99,92,79,29.94,29.64,10,4,26,0.36
2013-12-16,52.0,36.7,28.0,31.0,25.6,22.0,83,66,41,30.04,29.93,9,4,19,0.00
2013-12-17,57.0,41.4,30.0,32.0,27.5,21.0,83,59,35,30.04,29.86,12,6,38,0.00
2013-12-18,45.0,31.1,23.0,20.0,8.5,-5.0,72,43,16,30.17,29.87,16,6,27,0.00
2013-12-19,57.0,48.0,38.0,24.0,19.9,6.0,42,33,25,30.22,30.14,9,6,16,0.00
2013-12-20,50.0,45.8,41.0,46.0,32.6,21.0,91,62,42,30.14,30.10,15,9,26,0.00
2013-12-21,58.0,52.9,48.0,58.0,51.0,-99.9,100,96,92,30.10,29.99,16,11,27,0.02
2013-12-22,58.0,54.5,52.0,58.0,54.2,52.0,100,98,91,30.06,29.95,16,7,32,1.68
2013-12-23,53.0,50.9,48.0,53.0,50.9,48.0,100,100,100,30.03,29.97,7,4,14,1.80
2013-12-27,49.0,36.7,31.0,24.0,19.3,14.0,63,50,30,30.32,30.20,4,1,7,0.00
2013-12-28,49.0,41.0,35.0,38.0,23.9,-99.9,95,56,32,30.28,30.02,7,3,15,0.23
2013-12-29,52.0,39.8,33.0,45.0,36.8,29.0,99,89,73,29.99,29.71,8,4,24,0.57
2013-12-30,42.0,36.5,33.0,37.0,33.0,20.0,97,87,58,30.00,29.84,10,3,25,0.01
2013-12-31,41.0,31.6,27.0,26.0,16.6,12.0,78,54,35,30.22,29.98,10,3,24,0.00
2014-1-1,40.0,35.2,32.0,26.0,23.2,13.0,77,62,42,30.22,29.99,7,2,10,0.00
2014-1-2,41.0,32.7,13.0,40.0,29.7,10.0,99,89,69,29.98,29.53,14,7,28,0.05